Time;durP1;ratioP1;P1;durP2;ratioP2;P2;SDS_P1;SDS_P2;PMS_P1;PMS_P2;Temp;Humidity;BMP_temperature;BMP_pressure;BME280_temperature;BME280_humidity;BME280_pressure;Samples;Min_cycle;Max_cycle;Signal;HPM_P1;HPM_P2
2024/03/01 00:01:25;;;;;;;11.83;4.93;;;9.10;99.90;;;;;;4992830;28;20113;-51
2024/03/01 00:03:51;;;;;;;12.60;5.20;;;9.10;99.90;;;;;;4984307;28;20447;-54
2024/03/01 00:06:16;;;;;;;13.53;4.80;;;9.00;99.90;;;;;;4992860;28;20030;-51
2024/03/01 00:08:42;;;;;;;9.77;4.43;;;9.00;99.90;;;;;;4992419;28;20030;-52
2024/03/01 00:11:08;;;;;;;10.90;4.87;;;9.00;99.90;;;;;;4987766;28;20468;-50
2024/03/01 00:13:34;;;;;;;14.17;5.20;;;8.90;99.90;;;;;;4979946;28;20048;-51
2024/03/01 00:15:59;;;;;;;11.93;4.83;;;8.90;99.90;;;;;;4980090;28;20476;-54
2024/03/01 00:18:25;;;;;;;12.03;5.13;;;8.90;99.90;;;;;;4980021;28;20026;-51
2024/03/01 00:20:51;;;;;;;11.47;5.10;;;8.80;99.90;;;;;;4988851;28;20034;-52
2024/03/01 00:23:17;;;;;;;10.97;4.50;;;8.90;99.90;;;;;;4991433;28;20026;-52
2024/03/01 00:25:44;;;;;;;11.73;5.53;;;8.90;99.90;;;;;;4981252;28;20042;-51
2024/03/01 00:28:10;;;;;;;11.90;4.57;;;8.90;99.90;;;;;;4983463;28;20030;-54
2024/03/01 00:30:35;;;;;;;11.23;4.83;;;8.90;99.90;;;;;;4983635;28;20025;-55
2024/03/01 00:33:03;;;;;;;13.37;5.10;;;9.00;99.90;;;;;;4982541;28;20103;-50
2024/03/01 00:35:29;;;;;;;14.10;5.80;;;9.00;99.90;;;;;;4990856;28;20031;-51
2024/03/01 00:37:55;;;;;;;11.27;4.40;;;8.90;99.90;;;;;;4982934;28;20038;-51
2024/03/01 00:40:21;;;;;;;11.47;5.07;;;8.90;99.90;;;;;;4991079;28;20484;-50
2024/03/01 00:42:46;;;;;;;13.53;5.63;;;8.90;99.90;;;;;;4982876;28;20027;-52
2024/03/01 00:45:12;;;;;;;13.97;5.70;;;8.90;99.90;;;;;;4982743;28;20495;-51
2024/03/01 00:47:49;;;;;;;12.17;5.33;;;8.90;99.90;;;;;;4974609;28;20050;-50
2024/03/01 00:50:15;;;;;;;12.07;5.20;;;8.90;99.90;;;;;;4983583;28;20038;-50
2024/03/01 00:52:42;;;;;;;13.27;6.17;;;8.90;99.90;;;;;;4983173;28;20088;-52
2024/03/01 00:55:08;;;;;;;13.50;4.83;;;8.90;99.90;;;;;;4991421;28;20081;-50
2024/03/01 00:57:33;;;;;;;13.50;6.07;;;8.90;99.90;;;;;;4983377;28;20027;-50
2024/03/01 01:00:00;;;;;;;11.67;4.93;;;8.90;99.90;;;;;;4983154;28;20037;-54
2024/03/01 01:02:25;;;;;;;13.43;5.10;;;8.80;99.90;;;;;;4980774;28;20423;-51
2024/03/01 01:04:51;;;;;;;8.97;3.93;;;8.80;99.90;;;;;;4994518;28;20084;-49
2024/03/01 01:07:16;;;;;;;12.27;5.90;;;8.80;99.90;;;;;;4994650;28;20030;-52
2024/03/01 01:09:42;;;;;;;16.20;6.13;;;8.80;99.90;;;;;;4994510;28;20030;-54
2024/03/01 01:12:08;;;;;;;14.20;6.07;;;8.80;99.90;;;;;;4991427;28;20118;-50
2024/03/01 01:14:34;;;;;;;14.90;5.37;;;8.70;99.90;;;;;;4989744;28;20110;-51
2024/03/01 01:17:01;;;;;;;12.50;6.03;;;8.80;99.90;;;;;;4984258;28;20396;-50
2024/03/01 01:19:26;;;;;;;13.50;5.47;;;8.80;99.90;;;;;;4988620;28;20072;-50
2024/03/01 01:21:52;;;;;;;12.50;5.30;;;8.70;99.90;;;;;;4975656;28;20030;-53
2024/03/01 01:24:18;;;;;;;13.23;5.83;;;8.80;99.90;;;;;;4987341;28;20026;-49
2024/03/01 01:26:43;;;;;;;12.10;5.43;;;8.70;99.90;;;;;;4994409;28;20060;-54
2024/03/01 01:29:09;;;;;;;13.87;5.40;;;8.80;99.90;;;;;;4983180;28;20463;-52
2024/03/01 01:31:34;;;;;;;12.37;5.17;;;8.80;99.90;;;;;;4989121;28;20031;-52
2024/03/01 01:34:00;;;;;;;13.27;5.97;;;8.80;99.90;;;;;;4994391;28;20391;-51
2024/03/01 01:36:26;;;;;;;14.07;6.47;;;8.80;99.90;;;;;;4993978;28;20025;-55
2024/03/01 01:38:51;;;;;;;10.20;4.23;;;8.80;99.90;;;;;;4993902;28;20499;-54
2024/03/01 01:41:17;;;;;;;12.77;5.43;;;8.80;99.90;;;;;;4993779;28;20057;-55
2024/03/01 01:43:43;;;;;;;11.83;4.90;;;8.80;99.90;;;;;;4994381;28;20026;-55
2024/03/01 01:46:15;;;;;;;14.20;6.13;;;8.80;99.90;;;;;;4985683;28;20054;-54
2024/03/01 01:48:44;;;;;;;9.83;4.63;;;8.80;99.90;;;;;;4987353;28;20106;-54
2024/03/01 01:51:13;;;;;;;15.10;5.57;;;8.80;99.90;;;;;;4993261;28;20041;-54
2024/03/01 01:53:39;;;;;;;14.18;4.78;;;8.80;99.90;;;;;;4985932;28;20026;-56
2024/03/01 01:56:05;;;;;;;12.63;6.00;;;8.80;99.90;;;;;;4985951;28;20090;-52
2024/03/01 01:58:36;;;;;;;16.77;6.30;;;8.80;99.90;;;;;;4994036;28;20418;-50
2024/03/01 02:01:07;;;;;;;13.60;5.53;;;8.80;99.90;;;;;;4993401;28;20022;-54
2024/03/01 02:03:35;;;;;;;11.63;5.20;;;8.80;99.90;;;;;;4987993;28;20031;-53
2024/03/01 02:06:03;;;;;;;12.03;5.60;;;8.80;99.90;;;;;;4990729;28;20476;-50
2024/03/01 02:08:35;;;;;;;16.93;5.37;;;8.80;99.90;;;;;;4993578;28;20030;-52
2024/03/01 02:11:02;;;;;;;11.50;5.37;;;8.80;99.90;;;;;;4993416;28;20054;-52
2024/03/01 02:13:28;;;;;;;12.53;4.80;;;8.80;99.90;;;;;;4993682;28;20038;-52
2024/03/01 02:15:53;;;;;;;12.03;5.50;;;8.80;99.90;;;;;;4993196;28;20030;-54
2024/03/01 02:18:19;;;;;;;17.10;6.93;;;8.80;99.90;;;;;;4993520;28;20480;-50
2024/03/01 02:21:21;;;;;;;11.83;6.13;;;8.80;99.90;;;;;;4993050;28;20495;-50
2024/03/01 02:23:47;;;;;;;12.70;5.27;;;8.70;99.90;;;;;;4952166;28;20129;-55
2024/03/01 02:26:13;;;;;;;16.03;6.00;;;8.70;99.90;;;;;;4992519;28;20134;-53
2024/03/01 02:28:43;;;;;;;14.40;6.07;;;8.60;99.90;;;;;;4993455;28;20058;-50
2024/03/01 02:31:09;;;;;;;13.67;6.07;;;8.60;99.90;;;;;;4992605;28;20111;-53
2024/03/01 02:33:35;;;;;;;15.87;6.53;;;8.60;99.90;;;;;;4977699;28;20122;-52
2024/03/01 02:36:01;;;;;;;12.17;5.00;;;8.50;99.90;;;;;;4982476;28;20041;-54
2024/03/01 02:38:28;;;;;;;13.23;4.97;;;8.50;99.90;;;;;;4984912;28;20416;-53
2024/03/01 02:40:54;;;;;;;10.83;4.87;;;8.60;99.90;;;;;;4984661;28;20062;-54
2024/03/01 02:43:20;;;;;;;13.97;5.77;;;8.50;99.90;;;;;;4992999;28;20057;-54
2024/03/01 02:45:45;;;;;;;13.67;5.73;;;8.50;99.90;;;;;;4992546;28;20390;-53
2024/03/01 02:48:11;;;;;;;13.23;6.00;;;8.50;99.90;;;;;;4992837;28;20108;-54
2024/03/01 02:50:36;;;;;;;13.83;6.17;;;8.40;99.90;;;;;;4992534;28;20195;-51
2024/03/01 02:53:02;;;;;;;12.03;5.27;;;8.40;99.90;;;;;;4991385;28;20022;-53
2024/03/01 02:55:28;;;;;;;12.97;6.37;;;8.40;99.90;;;;;;4986000;28;20060;-54
2024/03/01 02:57:54;;;;;;;13.60;5.40;;;8.40;99.90;;;;;;4984171;28;20031;-51
2024/03/01 03:00:21;;;;;;;14.63;5.90;;;8.40;99.90;;;;;;4992164;28;20034;-53
2024/03/01 03:02:47;;;;;;;15.43;6.57;;;8.30;99.90;;;;;;4992100;28;20444;-50
2024/03/01 03:05:13;;;;;;;16.33;6.27;;;8.30;99.90;;;;;;4991955;28;20054;-53
2024/03/01 03:07:39;;;;;;;13.77;5.57;;;8.30;99.90;;;;;;4992370;28;20124;-53
2024/03/01 03:10:05;;;;;;;13.17;5.53;;;8.30;99.90;;;;;;4991898;28;20034;-54
2024/03/01 03:12:31;;;;;;;14.13;4.83;;;8.30;99.90;;;;;;4992033;28;20113;-50
2024/03/01 03:14:57;;;;;;;15.43;5.87;;;8.30;99.90;;;;;;4991779;28;20650;-50
2024/03/01 03:17:23;;;;;;;14.97;5.90;;;8.30;99.90;;;;;;4980657;28;20038;-55
2024/03/01 03:19:51;;;;;;;11.97;5.47;;;8.30;99.90;;;;;;4987964;28;20467;-54
2024/03/01 03:22:17;;;;;;;14.17;6.40;;;8.30;99.90;;;;;;4992094;28;20110;-52
2024/03/01 03:24:42;;;;;;;16.93;6.23;;;8.30;99.90;;;;;;4983739;28;20059;-54
2024/03/01 03:27:08;;;;;;;14.07;5.43;;;8.20;99.90;;;;;;4992022;28;20360;-49
2024/03/01 03:29:34;;;;;;;13.60;5.90;;;8.30;99.90;;;;;;4980473;28;20100;-50
2024/03/01 03:32:00;;;;;;;13.27;4.87;;;8.30;99.90;;;;;;4980036;28;20533;-50
2024/03/01 03:34:26;;;;;;;15.40;6.00;;;8.30;99.90;;;;;;4991443;28;20042;-53
2024/03/01 03:36:52;;;;;;;12.33;5.80;;;8.30;99.90;;;;;;4991933;28;20030;-53
2024/03/01 03:39:17;;;;;;;15.57;6.90;;;8.30;99.90;;;;;;4991866;28;20030;-50
2024/03/01 03:41:43;;;;;;;15.77;6.20;;;8.30;99.90;;;;;;4991729;28;20380;-50
2024/03/01 03:44:09;;;;;;;12.33;5.67;;;8.30;99.90;;;;;;4991495;28;20026;-54
2024/03/01 03:46:35;;;;;;;11.87;5.17;;;8.30;99.90;;;;;;4991606;28;20097;-50
2024/03/01 03:49:01;;;;;;;13.23;5.90;;;8.30;99.90;;;;;;4991738;28;20042;-53
2024/03/01 03:51:29;;;;;;;11.77;5.80;;;8.30;99.90;;;;;;4991293;28;20038;-52
2024/03/01 03:53:58;;;;;;;10.67;4.63;;;8.30;99.90;;;;;;4991418;28;20030;-54
2024/03/01 03:56:23;;;;;;;12.95;5.93;;;8.30;99.90;;;;;;4991246;28;20026;-50
2024/03/01 03:58:50;;;;;;;10.03;4.73;;;8.30;99.90;;;;;;4991451;28;20057;-54
2024/03/01 04:01:16;;;;;;;11.63;5.20;;;8.30;99.90;;;;;;4988851;28;20081;-52
2024/03/01 04:03:42;;;;;;;12.37;5.47;;;8.30;99.90;;;;;;4986073;28;20427;-54
2024/03/01 04:06:09;;;;;;;14.27;5.80;;;8.40;99.90;;;;;;4991151;28;20414;-51
2024/03/01 04:08:40;;;;;;;11.97;5.33;;;8.40;99.90;;;;;;4991521;28;20132;-54
2024/03/01 04:11:07;;;;;;;9.00;4.23;;;8.40;99.90;;;;;;4989612;28;20041;-49
2024/03/01 04:13:34;;;;;;;12.67;5.53;;;8.40;99.90;;;;;;4991410;28;20038;-51
2024/03/01 04:16:00;;;;;;;11.17;4.50;;;8.40;99.90;;;;;;4983074;28;20449;-52
2024/03/01 04:18:27;;;;;;;9.77;3.93;;;8.40;99.90;;;;;;4979770;28;20113;-53
2024/03/01 04:20:56;;;;;;;10.77;4.57;;;8.40;99.90;;;;;;4978613;28;20030;-51
2024/03/01 04:23:23;;;;;;;10.48;4.63;;;8.40;99.90;;;;;;4983254;28;20033;-50
2024/03/01 04:25:51;;;;;;;14.17;5.67;;;8.40;99.90;;;;;;4990948;28;20109;-53
2024/03/01 04:28:22;;;;;;;13.10;5.87;;;8.40;99.90;;;;;;4990635;28;20034;-49
2024/03/01 04:30:48;;;;;;;13.47;5.33;;;8.40;99.90;;;;;;4982706;28;20159;-52
2024/03/01 04:33:14;;;;;;;12.17;4.87;;;8.50;99.90;;;;;;4981571;28;20050;-52
2024/03/01 04:35:41;;;;;;;12.80;5.63;;;8.50;99.90;;;;;;4977273;28;20027;-54
2024/03/01 04:38:07;;;;;;;10.50;4.80;;;8.50;99.90;;;;;;4990082;28;20050;-52
2024/03/01 04:40:33;;;;;;;11.27;3.77;;;8.50;99.90;;;;;;4970135;28;20109;-55
2024/03/01 04:42:59;;;;;;;9.83;4.13;;;8.60;99.90;;;;;;4979173;28;20566;-52
2024/03/01 04:45:25;;;;;;;13.00;5.30;;;8.60;99.90;;;;;;4982712;28;20069;-54
2024/03/01 04:47:51;;;;;;;11.37;5.10;;;8.60;99.90;;;;;;4991404;28;20019;-54
2024/03/01 04:50:19;;;;;;;11.27;5.07;;;8.60;99.90;;;;;;4990780;28;20063;-53
2024/03/01 04:52:45;;;;;;;10.40;4.93;;;8.60;99.90;;;;;;4991033;28;20050;-50
2024/03/01 04:55:11;;;;;;;12.23;4.93;;;8.60;99.90;;;;;;4990987;28;20026;-51
2024/03/01 04:57:36;;;;;;;10.30;5.00;;;8.70;99.90;;;;;;4991202;28;20455;-53
2024/03/01 05:00:11;;;;;;;10.73;4.67;;;8.70;99.90;;;;;;4978231;28;20392;-50
2024/03/01 05:02:43;;;;;;;11.20;4.40;;;8.70;99.90;;;;;;4970038;28;20035;-50
2024/03/01 05:05:14;;;;;;;11.07;4.20;;;8.70;99.90;;;;;;4979490;28;20380;-50
2024/03/01 05:07:40;;;;;;;12.70;5.10;;;8.80;99.90;;;;;;4969984;28;20496;-53
2024/03/01 05:10:10;;;;;;;10.73;4.47;;;8.70;99.90;;;;;;4987861;28;20039;-52
2024/03/01 05:12:38;;;;;;;;;;;8.80;99.90;;;;;;4978992;28;20022;-50
2024/03/01 05:15:05;;;;;;;10.63;3.92;;;8.80;99.90;;;;;;4974924;28;20010;-52
2024/03/01 05:17:35;;;;;;;11.23;4.60;;;8.80;99.90;;;;;;4967295;28;20077;-54
2024/03/01 05:20:01;;;;;;;12.73;4.30;;;8.80;99.90;;;;;;4983220;28;20031;-54
2024/03/01 05:22:26;;;;;;;8.33;3.90;;;8.90;99.90;;;;;;4974232;28;20101;-54
2024/03/01 05:24:52;;;;;;;11.07;4.50;;;8.90;99.90;;;;;;4990919;28;20113;-50
2024/03/01 05:27:18;;;;;;;9.27;3.97;;;8.90;99.90;;;;;;4971558;28;20030;-54
2024/03/01 05:29:43;;;;;;;9.73;3.50;;;9.00;99.90;;;;;;4984439;28;20125;-54
2024/03/01 05:32:09;;;;;;;9.77;4.10;;;9.00;99.90;;;;;;4974480;28;20101;-52
2024/03/01 05:34:35;;;;;;;9.97;4.70;;;9.00;99.90;;;;;;4983318;28;20037;-50
2024/03/01 05:37:02;;;;;;;10.03;4.10;;;9.00;99.90;;;;;;4990576;28;20386;-51
2024/03/01 05:39:28;;;;;;;12.17;4.83;;;9.00;99.90;;;;;;4990598;28;20031;-50
2024/03/01 05:41:54;;;;;;;9.33;4.10;;;9.00;99.90;;;;;;4985781;28;20050;-52
2024/03/01 05:44:19;;;;;;;9.97;4.37;;;9.10;99.90;;;;;;4985864;28;20113;-51
2024/03/01 05:46:45;;;;;;;10.60;4.47;;;9.10;99.90;;;;;;4994144;28;20022;-55
2024/03/01 05:49:11;;;;;;;9.17;3.97;;;9.10;99.90;;;;;;4972041;28;20049;-53
2024/03/01 05:51:37;;;;;;;8.50;3.83;;;9.10;99.90;;;;;;4971980;28;20037;-51
2024/03/01 05:54:03;;;;;;;12.83;4.57;;;9.10;99.90;;;;;;4974522;28;20333;-50
2024/03/01 05:56:32;;;;;;;12.93;4.70;;;9.10;99.90;;;;;;4977832;28;20077;-51
2024/03/01 05:58:58;;;;;;;;;;;9.00;99.90;;;;;;4973641;28;20034;-54
2024/03/01 06:01:24;;;;;;;9.33;4.20;;;9.10;99.90;;;;;;4971374;28;19910;-51
2024/03/01 06:03:49;;;;;;;9.83;4.03;;;9.10;99.90;;;;;;4973143;28;20114;-55
2024/03/01 06:06:18;;;;;;;8.30;3.97;;;9.10;99.90;;;;;;4972599;28;20062;-51
2024/03/01 06:08:48;;;;;;;17.90;7.47;;;9.10;99.90;;;;;;4972329;28;20036;-51
2024/03/01 06:11:14;;;;;;;12.13;5.53;;;9.10;99.90;;;;;;4986501;28;20046;-52
2024/03/01 06:13:40;;;;;;;11.87;4.87;;;9.00;99.90;;;;;;4979053;28;20466;-50
2024/03/01 06:16:09;;;;;;;12.20;4.87;;;9.00;99.90;;;;;;4985550;28;20053;-51
2024/03/01 06:18:34;;;;;;;11.55;5.35;;;9.10;99.90;;;;;;4985854;28;20452;-50
2024/03/01 06:21:00;;;;;;;14.33;4.90;;;9.00;99.90;;;;;;4990584;28;20064;-53
2024/03/01 06:23:28;;;;;;;12.77;5.23;;;9.00;99.90;;;;;;4985340;28;20411;-53
2024/03/01 06:25:54;;;;;;;14.23;5.90;;;9.00;99.90;;;;;;4992001;28;20126;-51
2024/03/01 06:28:20;;;;;;;13.27;5.77;;;9.00;99.90;;;;;;4993295;28;20097;-51
2024/03/01 06:30:45;;;;;;;10.03;4.87;;;8.90;99.90;;;;;;4989654;28;20371;-54
2024/03/01 06:33:11;;;;;;;14.03;6.00;;;9.00;99.90;;;;;;4992069;28;20387;-55
2024/03/01 06:35:37;;;;;;;8.63;4.50;;;8.90;99.90;;;;;;4986758;28;20029;-56
2024/03/01 06:38:03;;;;;;;9.07;3.17;;;8.90;99.90;;;;;;4978944;28;20031;-55
2024/03/01 06:40:29;;;;;;;7.20;3.00;;;8.70;99.90;;;;;;4985669;28;20619;-51
2024/03/01 06:42:55;;;;;;;6.20;2.63;;;8.70;99.90;;;;;;4987025;28;20080;-52
2024/03/01 06:45:21;;;;;;;3.77;1.50;;;8.60;99.90;;;;;;4991442;28;20129;-53
2024/03/01 06:47:48;;;;;;;2.60;1.37;;;8.50;99.90;;;;;;4994782;28;20034;-54
2024/03/01 06:50:13;;;;;;;3.13;1.63;;;8.30;99.90;;;;;;4994956;28;20034;-51
2024/03/01 06:52:39;;;;;;;2.53;1.17;;;8.20;99.90;;;;;;4980095;28;20363;-51
2024/03/01 06:55:06;;;;;;;3.10;1.33;;;8.00;99.90;;;;;;4994185;28;20100;-55
2024/03/01 06:57:31;;;;;;;2.90;1.30;;;8.00;99.90;;;;;;4992742;28;20506;-51
2024/03/01 06:59:57;;;;;;;2.57;1.40;;;7.80;99.90;;;;;;4992595;28;20058;-55
2024/03/01 07:02:23;;;;;;;2.47;1.20;;;7.80;99.90;;;;;;4992490;28;20102;-54
2024/03/01 07:04:48;;;;;;;4.20;1.30;;;7.80;99.90;;;;;;4992498;28;20026;-54
2024/03/01 07:07:16;;;;;;;3.93;2.03;;;7.90;99.90;;;;;;4984283;28;20039;-52
2024/03/01 07:09:42;;;;;;;2.70;1.47;;;7.80;99.90;;;;;;4991994;28;20345;-49
2024/03/01 07:12:08;;;;;;;2.73;1.13;;;7.80;99.90;;;;;;4992091;28;20468;-49
2024/03/01 07:14:34;;;;;;;3.83;1.47;;;7.80;99.90;;;;;;4981118;28;20038;-51
2024/03/01 07:17:00;;;;;;;6.30;2.20;;;7.80;99.90;;;;;;4986789;28;20077;-55
2024/03/01 07:19:25;;;;;;;3.33;1.70;;;7.80;99.90;;;;;;4991929;28;20125;-51
2024/03/01 07:21:51;;;;;;;4.07;1.70;;;7.80;99.90;;;;;;4991761;28;20022;-53
2024/03/01 07:24:17;;;;;;;4.00;1.83;;;7.80;99.90;;;;;;4975711;28;20027;-55
2024/03/01 07:26:42;;;;;;;3.10;1.43;;;7.80;99.90;;;;;;4991943;28;20088;-54
2024/03/01 07:29:08;;;;;;;4.77;2.00;;;7.70;99.90;;;;;;4992149;28;20031;-55
2024/03/01 07:31:34;;;;;;;4.80;2.17;;;7.70;99.90;;;;;;4990841;28;20035;-53
2024/03/01 07:33:59;;;;;;;5.03;2.03;;;7.60;99.90;;;;;;4991849;28;20457;-51
2024/03/01 07:36:25;;;;;;;5.30;1.97;;;7.70;99.90;;;;;;4982208;28;20038;-53
2024/03/01 07:38:50;;;;;;;4.07;1.80;;;7.70;99.90;;;;;;4985128;28;20052;-55
2024/03/01 07:41:18;;;;;;;4.70;2.20;;;7.70;99.90;;;;;;4983284;28;20030;-54
2024/03/01 07:43:44;;;;;;;5.20;2.30;;;7.70;99.90;;;;;;4991595;28;20026;-51
2024/03/01 07:46:10;;;;;;;4.67;2.23;;;7.70;99.90;;;;;;4991377;28;20041;-51
2024/03/01 07:48:35;;;;;;;6.30;2.93;;;7.70;99.90;;;;;;4991568;28;20125;-52
2024/03/01 07:51:01;;;;;;;5.30;2.50;;;7.80;99.90;;;;;;4991290;28;20109;-52
2024/03/01 07:53:27;;;;;;;9.43;3.10;;;7.80;99.90;;;;;;4983703;28;20030;-51
2024/03/01 07:55:53;;;;;;;4.80;2.37;;;7.80;99.90;;;;;;4991211;28;20030;-53
2024/03/01 07:58:19;;;;;;;6.00;3.07;;;7.80;99.90;;;;;;4991129;28;20472;-53
2024/03/01 08:00:44;;;;;;;7.40;3.30;;;7.80;99.90;;;;;;4991202;28;20122;-52
2024/03/01 08:03:11;;;;;;;6.20;2.80;;;7.80;99.90;;;;;;4990833;28;20026;-50
2024/03/01 08:05:40;;;;;;;7.57;3.13;;;7.90;99.90;;;;;;4980670;28;20031;-54
2024/03/01 08:08:09;;;;;;;5.77;2.97;;;7.90;99.90;;;;;;4986292;28;20061;-54
2024/03/01 08:10:45;;;;;;;6.28;3.40;;;7.90;99.90;;;;;;4981625;28;20070;-53
2024/03/01 08:13:16;;;;;;;4.63;2.27;;;7.90;99.90;;;;;;4991251;28;20046;-54
2024/03/01 08:15:42;;;;;;;7.17;3.73;;;7.90;99.90;;;;;;4991052;28;20057;-54
2024/03/01 08:18:21;;;;;;;6.30;3.20;;;8.00;99.90;;;;;;4984473;28;20081;-54
2024/03/01 08:20:52;;;;;;;4.18;2.10;;;7.90;99.90;;;;;;4983239;28;20267;-51
2024/03/01 08:23:18;;;;;;;4.73;2.53;;;7.90;99.90;;;;;;4990881;28;20037;-51
2024/03/01 08:25:44;;;;;;;3.33;1.77;;;7.90;99.90;;;;;;4987752;28;20106;-55
2024/03/01 08:28:09;;;;;;;5.37;1.80;;;7.90;99.90;;;;;;4986474;28;20121;-55
2024/03/01 08:30:46;;;;;;;3.90;1.60;;;8.00;99.90;;;;;;4990640;28;20069;-52
2024/03/01 08:33:17;;;;;;;3.87;1.90;;;7.90;99.90;;;;;;4991186;28;20113;-54
2024/03/01 08:35:42;;;;;;;2.60;1.43;;;8.00;99.90;;;;;;4987740;28;20490;-51
2024/03/01 08:38:43;;;;;;;3.50;1.57;;;8.00;99.90;;;;;;4986233;28;20133;-50
2024/03/01 08:41:10;;;;;;;3.77;1.80;;;7.90;99.90;;;;;;4984199;28;20027;-54
2024/03/01 08:43:36;;;;;;;3.00;1.67;;;7.90;99.90;;;;;;4989523;28;20089;-53
2024/03/01 08:46:03;;;;;;;4.70;1.90;;;7.80;99.90;;;;;;4982447;28;20031;-54
2024/03/01 08:48:33;;;;;;;3.87;1.60;;;7.90;99.90;;;;;;4990748;28;20114;-53
2024/03/01 08:51:00;;;;;;;3.13;1.70;;;7.90;99.90;;;;;;4990508;28;20044;-50
2024/03/01 08:53:44;;;;;;;2.93;1.53;;;7.90;99.90;;;;;;4974521;28;20066;-53
2024/03/01 08:56:20;;;;;;;3.50;1.50;;;7.90;99.90;;;;;;4989068;28;20038;-54
2024/03/01 08:58:47;;;;;;;3.47;1.70;;;7.90;99.90;;;;;;4987326;28;20038;-54
2024/03/01 09:01:45;;;;;;;4.30;1.90;;;7.90;99.90;;;;;;4978922;28;20114;-51
2024/03/01 09:04:29;;;;;;;4.03;1.73;;;7.80;99.90;;;;;;4980925;28;20035;-53
2024/03/01 09:07:08;;;;;;;3.13;1.57;;;7.90;99.90;;;;;;4990434;28;20018;-55
2024/03/01 09:09:34;;;;;;;5.18;1.80;;;8.00;99.90;;;;;;4982614;28;20027;-53
2024/03/01 09:12:00;;;;;;;4.47;1.37;;;8.20;99.90;;;;;;4990594;28;20039;-51
2024/03/01 09:14:33;;;;;;;3.43;1.70;;;8.20;99.90;;;;;;4990185;28;20042;-55
2024/03/01 09:17:01;;;;;;;3.50;1.50;;;8.40;99.90;;;;;;4986156;28;20084;-54
2024/03/01 09:19:36;;;;;;;3.78;1.90;;;8.50;99.90;;;;;;4994138;28;20053;-54
2024/03/01 09:22:01;;;;;;;3.27;1.63;;;8.50;99.90;;;;;;4994297;28;20088;-50
2024/03/01 09:24:28;;;;;;;3.33;1.70;;;8.60;99.90;;;;;;4993996;28;20053;-54
2024/03/01 09:26:55;;;;;;;4.03;1.80;;;8.60;99.90;;;;;;4990118;28;20486;-52
2024/03/01 09:29:32;;;;;;;3.23;1.50;;;8.60;99.90;;;;;;4982511;28;20467;-54
2024/03/01 09:31:58;;;;;;;2.83;1.80;;;8.60;99.90;;;;;;4989415;28;20034;-52
2024/03/01 09:34:30;;;;;;;2.90;1.43;;;8.50;99.90;;;;;;4990634;28;20428;-53
2024/03/01 09:36:55;;;;;;;6.00;2.03;;;8.50;99.90;;;;;;4993858;28;20476;-52
2024/03/01 09:39:21;;;;;;;4.30;2.10;;;8.50;99.90;;;;;;4986360;28;20090;-52
2024/03/01 09:42:06;;;;;;;5.00;1.57;;;8.50;99.90;;;;;;4983854;28;20026;-54
2024/03/01 09:44:47;;;;;;;2.80;1.67;;;8.60;99.90;;;;;;4984680;28;20036;-51
2024/03/01 09:47:26;;;;;;;4.90;1.70;;;8.60;99.90;;;;;;4979398;28;20034;-51
2024/03/01 09:49:57;;;;;;;;;;;8.80;99.90;;;;;;4994288;28;20062;-55
2024/03/01 09:52:42;;;;;;;3.30;1.63;;;9.00;99.90;;;;;;4993762;28;19917;-55
2024/03/01 09:55:37;;;;;;;4.00;1.50;;;9.40;99.90;;;;;;4993657;28;20042;-55
2024/03/01 09:58:18;;;;;;;2.83;1.60;;;9.50;99.90;;;;;;4980328;28;20077;-52
2024/03/01 10:01:10;;;;;;;3.70;1.47;;;9.70;99.90;;;;;;4992330;28;20038;-53
2024/03/01 10:03:50;;;;;;;3.50;1.67;;;9.70;99.90;;;;;;4993818;28;20139;-54
2024/03/01 10:06:50;;;;;;;2.70;1.43;;;9.80;99.90;;;;;;4993794;28;20487;-55
2024/03/01 10:09:40;;;;;;;3.23;1.47;;;9.90;99.90;;;;;;4993759;28;20030;-55
2024/03/01 10:12:12;;;;;;;2.27;1.33;;;10.20;99.90;;;;;;4985656;28;20030;-55
2024/03/01 10:14:52;;;;;;;2.53;1.20;;;10.80;99.90;;;;;;4991993;28;20483;-55
2024/03/01 10:17:41;;;;;;;3.97;1.40;;;11.20;99.90;;;;;;4993413;28;20038;-53
2024/03/01 10:20:26;;;;;;;4.97;1.87;;;11.80;99.90;;;;;;4993199;28;20041;-54
2024/03/01 10:23:34;;;;;;;1.95;1.27;;;12.70;99.90;;;;;;4988860;28;20086;-53
2024/03/01 10:26:00;;;;;;;2.60;1.52;;;14.30;99.90;;;;;;4985702;28;20038;-55
2024/03/01 10:28:50;;;;;;;3.55;1.40;;;14.90;99.90;;;;;;4985431;28;20113;-55
2024/03/01 10:31:31;;;;;;;2.97;1.60;;;14.90;99.90;;;;;;4987924;28;20030;-53
2024/03/01 10:34:05;;;;;;;3.95;1.70;;;14.40;99.90;;;;;;4993567;28;20049;-55
2024/03/01 10:36:48;;;;;;;3.15;1.80;;;14.90;99.90;;;;;;4992523;28;20030;-54
2024/03/01 10:39:20;;;;;;;3.42;1.67;;;15.00;99.90;;;;;;4984993;28;20030;-55
2024/03/01 10:41:55;;;;;;;2.10;1.30;;;14.50;99.90;;;;;;4990648;28;20027;-54
2024/03/01 10:44:37;;;;;;;2.33;1.25;;;13.80;99.90;;;;;;4988221;28;20049;-54
2024/03/01 10:47:22;;;;;;;2.95;1.50;;;13.20;99.90;;;;;;4992582;28;20038;-54
2024/03/01 10:50:12;;;;;;;3.15;1.42;;;12.60;99.90;;;;;;4992492;28;20044;-55
2024/03/01 10:53:00;;;;;;;3.97;1.60;;;12.20;99.90;;;;;;4992481;28;20398;-54
2024/03/01 10:55:33;;;;;;;3.22;1.33;;;12.00;99.90;;;;;;4984467;28;20042;-51
2024/03/01 10:58:22;;;;;;;2.55;1.20;;;11.80;99.90;;;;;;4992680;28;20033;-51
2024/03/01 11:00:56;;;;;;;2.35;1.30;;;11.70;99.90;;;;;;4984317;28;20399;-51
2024/03/01 11:03:32;;;;;;;2.47;1.27;;;12.00;99.90;;;;;;4992536;28;20037;-52
2024/03/01 11:06:29;;;;;;;3.22;1.20;;;12.80;99.90;;;;;;4992470;28;20046;-52
2024/03/01 11:09:06;;;;;;;2.30;1.23;;;14.30;99.90;;;;;;4992215;28;20045;-55
2024/03/01 11:11:35;;;;;;;2.47;1.00;;;15.20;99.90;;;;;;4992100;28;20022;-52
2024/03/01 11:14:05;;;;;;;1.48;0.63;;;16.30;97.60;;;;;;4992323;28;20026;-52
2024/03/01 11:16:33;;;;;;;2.30;0.80;;;16.80;96.90;;;;;;4984289;28;20097;-54
2024/03/01 11:19:05;;;;;;;5.65;1.00;;;17.50;95.40;;;;;;4984279;28;20088;-53
2024/03/01 11:21:33;;;;;;;2.88;0.70;;;17.30;94.50;;;;;;4991691;28;20046;-52
2024/03/01 11:24:04;;;;;;;1.53;0.70;;;16.90;94.60;;;;;;4992123;28;20033;-55
2024/03/01 11:26:43;;;;;;;2.22;0.60;;;17.00;94.30;;;;;;4976189;28;20035;-54
2024/03/01 11:29:20;;;;;;;1.52;0.55;;;16.90;95.00;;;;;;4985278;28;20041;-54
2024/03/01 11:31:50;;;;;;;1.17;0.52;;;17.20;94.10;;;;;;4991622;28;20520;-53
2024/03/01 11:34:45;;;;;;;1.35;0.70;;;17.00;94.30;;;;;;4986199;28;20063;-54
2024/03/01 11:37:36;;;;;;;1.15;0.50;;;16.70;94.90;;;;;;4985267;28;20046;-53
2024/03/01 11:40:09;;;;;;;0.93;0.70;;;16.60;94.50;;;;;;4991837;28;20407;-55
2024/03/01 11:42:53;;;;;;;1.92;0.85;;;17.20;94.20;;;;;;4983619;28;20113;-54
2024/03/01 11:45:43;;;;;;;1.02;0.55;;;17.10;93.40;;;;;;4991440;28;20031;-54
2024/03/01 11:48:54;;;;;;;2.15;0.65;;;17.50;93.20;;;;;;4991634;28;20065;-50
2024/03/01 11:51:46;;;;;;;1.13;0.60;;;17.50;93.80;;;;;;4991376;28;20370;-54
2024/03/01 11:55:03;;;;;;;1.30;0.50;;;17.50;93.90;;;;;;4986654;28;20031;-53
2024/03/01 11:57:37;;;;;;;1.00;0.50;;;17.50;92.90;;;;;;4987291;28;20041;-51
2024/03/01 12:00:12;;;;;;;1.15;0.55;;;17.20;92.90;;;;;;4991407;28;20023;-54
2024/03/01 12:03:06;;;;;;;1.05;0.60;;;17.00;94.00;;;;;;4982976;28;20117;-50
2024/03/01 12:05:56;;;;;;;2.30;0.98;;;17.60;92.60;;;;;;4987428;28;20053;-50
2024/03/01 12:08:30;;;;;;;1.30;0.60;;;17.60;92.20;;;;;;4991203;28;20101;-51
2024/03/01 12:11:14;;;;;;;1.88;0.50;;;17.70;92.30;;;;;;4982979;28;20361;-54
2024/03/01 12:13:49;;;;;;;6.20;0.70;;;18.00;91.80;;;;;;4989856;28;20081;-52
2024/03/01 12:16:36;;;;;;;3.40;0.70;;;18.00;91.80;;;;;;4990966;28;20034;-50
2024/03/01 12:19:12;;;;;;;3.17;0.40;;;17.60;92.10;;;;;;4978707;28;20185;-52
2024/03/01 12:21:55;;;;;;;1.85;0.50;;;17.70;92.00;;;;;;4987351;28;20031;-53
2024/03/01 12:24:23;;;;;;;0.98;0.35;;;18.00;91.70;;;;;;4985634;28;20108;-51
2024/03/01 12:27:17;;;;;;;0.60;0.35;;;17.60;91.70;;;;;;4991199;28;20065;-50
2024/03/01 12:30:00;;;;;;;1.65;0.45;;;16.70;92.70;;;;;;4982658;28;20054;-50
2024/03/01 12:32:49;;;;;;;1.23;0.40;;;16.00;94.20;;;;;;4986660;28;20391;-50
2024/03/01 12:35:31;;;;;;;1.40;0.45;;;16.60;94.00;;;;;;4985936;28;20042;-51
2024/03/01 12:38:24;;;;;;;2.63;0.63;;;17.40;93.60;;;;;;4991984;28;20030;-54
2024/03/01 12:41:09;;;;;;;0.85;0.40;;;18.20;91.90;;;;;;4983774;28;20035;-52
2024/03/01 12:43:57;;;;;;;0.77;0.30;;;18.10;91.50;;;;;;4992219;28;20034;-54
2024/03/01 12:46:25;;;;;;;1.67;0.77;;;18.40;91.30;;;;;;4990043;28;20451;-54
2024/03/01 12:49:06;;;;;;;0.82;0.50;;;18.20;91.10;;;;;;4990787;28;20455;-56
2024/03/01 12:51:42;;;;;;;0.85;0.43;;;18.00;90.80;;;;;;4984995;28;20042;-55
2024/03/01 12:54:10;;;;;;;1.58;0.50;;;17.90;90.90;;;;;;4985260;28;20403;-55
2024/03/01 12:56:47;;;;;;;1.08;0.50;;;18.20;90.70;;;;;;4994475;28;20034;-55
2024/03/01 12:59:40;;;;;;;1.25;0.40;;;18.50;90.00;;;;;;4994796;28;20034;-52
2024/03/01 13:02:36;;;;;;;0.43;0.40;;;18.30;90.40;;;;;;4983267;28;20058;-54
2024/03/01 13:05:24;;;;;;;3.03;0.40;;;17.80;90.40;;;;;;4993798;28;20041;-53
2024/03/01 13:07:53;;;;;;;0.40;0.35;;;17.40;90.90;;;;;;4993602;28;20422;-54
2024/03/01 13:10:22;;;;;;;;;;;17.10;90.80;;;;;;4980569;28;20061;-54